sensor_id;sensor_type;location;lat;lon;timestamp;P1;durP1;ratioP1;P2;durP2;ratioP2
9968;SDS011;5025;48.890;9.278;2023-08-21T00:01:23;6.40;;;6.00;;
9968;SDS011;5025;48.890;9.278;2023-08-21T00:03:49;6.47;;;6.00;;
9968;SDS011;5025;48.890;9.278;2023-08-21T00:06:14;5.87;;;5.47;;
9968;SDS011;5025;48.890;9.278;2023-08-21T00:08:39;5.83;;;5.50;;
9968;SDS011;5025;48.890;9.278;2023-08-21T00:11:04;6.37;;;5.87;;
9968;SDS011;5025;48.890;9.278;2023-08-21T00:13:30;6.57;;;6.07;;
9968;SDS011;5025;48.890;9.278;2023-08-21T00:15:55;6.53;;;6.13;;
9968;SDS011;5025;48.890;9.278;2023-08-21T00:18:20;6.63;;;6.13;;
9968;SDS011;5025;48.890;9.278;2023-08-21T00:20:46;6.43;;;5.97;;
9968;SDS011;5025;48.890;9.278;2023-08-21T00:23:11;6.50;;;5.90;;
9968;SDS011;5025;48.890;9.278;2023-08-21T00:25:37;6.60;;;6.20;;
9968;SDS011;5025;48.890;9.278;2023-08-21T00:28:02;6.30;;;5.90;;
9968;SDS011;5025;48.890;9.278;2023-08-21T00:30:28;6.30;;;5.83;;
9968;SDS011;5025;48.890;9.278;2023-08-21T00:32:53;6.93;;;6.27;;
9968;SDS011;5025;48.890;9.278;2023-08-21T00:35:18;6.30;;;5.90;;
9968;SDS011;5025;48.890;9.278;2023-08-21T00:37:44;7.13;;;6.53;;
9968;SDS011;5025;48.890;9.278;2023-08-21T00:40:09;6.80;;;6.40;;
9968;SDS011;5025;48.890;9.278;2023-08-21T00:42:35;7.00;;;6.50;;
9968;SDS011;5025;48.890;9.278;2023-08-21T00:45:00;7.87;;;7.17;;
9968;SDS011;5025;48.890;9.278;2023-08-21T00:47:25;6.97;;;6.40;;
9968;SDS011;5025;48.890;9.278;2023-08-21T00:49:51;6.27;;;5.83;;
9968;SDS011;5025;48.890;9.278;2023-08-21T00:52:16;6.83;;;6.33;;
9968;SDS011;5025;48.890;9.278;2023-08-21T00:54:42;6.90;;;6.40;;
9968;SDS011;5025;48.890;9.278;2023-08-21T00:57:08;6.97;;;6.47;;
9968;SDS011;5025;48.890;9.278;2023-08-21T00:59:35;6.57;;;6.17;;
9968;SDS011;5025;48.890;9.278;2023-08-21T01:02:00;6.60;;;6.10;;
9968;SDS011;5025;48.890;9.278;2023-08-21T01:04:26;6.47;;;6.07;;
9968;SDS011;5025;48.890;9.278;2023-08-21T01:06:51;6.40;;;6.00;;
9968;SDS011;5025;48.890;9.278;2023-08-21T01:14:51;6.30;;;5.80;;
9968;SDS011;5025;48.890;9.278;2023-08-21T01:17:21;6.57;;;6.07;;
9968;SDS011;5025;48.890;9.278;2023-08-21T01:19:48;6.33;;;5.93;;
9968;SDS011;5025;48.890;9.278;2023-08-21T01:22:15;6.90;;;6.40;;
9968;SDS011;5025;48.890;9.278;2023-08-21T01:24:40;6.90;;;6.30;;
9968;SDS011;5025;48.890;9.278;2023-08-21T01:27:06;6.60;;;6.10;;
9968;SDS011;5025;48.890;9.278;2023-08-21T01:29:31;6.90;;;6.40;;
9968;SDS011;5025;48.890;9.278;2023-08-21T01:32:01;6.33;;;5.80;;
9968;SDS011;5025;48.890;9.278;2023-08-21T01:34:36;7.00;;;6.43;;
9968;SDS011;5025;48.890;9.278;2023-08-21T01:37:03;6.30;;;5.90;;
9968;SDS011;5025;48.890;9.278;2023-08-21T01:39:29;7.07;;;6.57;;
9968;SDS011;5025;48.890;9.278;2023-08-21T01:41:55;6.17;;;5.77;;
9968;SDS011;5025;48.890;9.278;2023-08-21T01:44:21;6.67;;;6.07;;
9968;SDS011;5025;48.890;9.278;2023-08-21T01:46:46;7.13;;;6.63;;
9968;SDS011;5025;48.890;9.278;2023-08-21T01:49:12;6.53;;;6.13;;
9968;SDS011;5025;48.890;9.278;2023-08-21T01:51:37;6.47;;;6.07;;
9968;SDS011;5025;48.890;9.278;2023-08-21T01:54:03;6.23;;;5.83;;
9968;SDS011;5025;48.890;9.278;2023-08-21T01:56:28;6.60;;;6.20;;
9968;SDS011;5025;48.890;9.278;2023-08-21T01:58:53;6.57;;;6.17;;
9968;SDS011;5025;48.890;9.278;2023-08-21T02:01:18;6.60;;;6.10;;
9968;SDS011;5025;48.890;9.278;2023-08-21T02:03:44;6.73;;;6.30;;
9968;SDS011;5025;48.890;9.278;2023-08-21T02:06:10;7.10;;;6.50;;
9968;SDS011;5025;48.890;9.278;2023-08-21T02:08:35;6.43;;;6.03;;
9968;SDS011;5025;48.890;9.278;2023-08-21T02:11:01;6.77;;;6.20;;
9968;SDS011;5025;48.890;9.278;2023-08-21T02:13:26;6.70;;;6.20;;
9968;SDS011;5025;48.890;9.278;2023-08-21T02:15:51;6.90;;;6.50;;
9968;SDS011;5025;48.890;9.278;2023-08-21T02:18:17;6.57;;;6.07;;
9968;SDS011;5025;48.890;9.278;2023-08-21T02:20:42;6.47;;;6.03;;
9968;SDS011;5025;48.890;9.278;2023-08-21T02:23:07;6.90;;;6.40;;
9968;SDS011;5025;48.890;9.278;2023-08-21T02:25:33;6.50;;;6.10;;
9968;SDS011;5025;48.890;9.278;2023-08-21T02:27:58;6.67;;;6.27;;
9968;SDS011;5025;48.890;9.278;2023-08-21T02:30:23;6.70;;;6.20;;
9968;SDS011;5025;48.890;9.278;2023-08-21T02:32:50;6.80;;;6.30;;
9968;SDS011;5025;48.890;9.278;2023-08-21T02:35:17;6.20;;;5.80;;
9968;SDS011;5025;48.890;9.278;2023-08-21T02:37:42;6.83;;;6.30;;
9968;SDS011;5025;48.890;9.278;2023-08-21T02:40:08;6.60;;;6.10;;
9968;SDS011;5025;48.890;9.278;2023-08-21T02:42:33;6.33;;;5.83;;
9968;SDS011;5025;48.890;9.278;2023-08-21T02:44:59;6.80;;;6.40;;
9968;SDS011;5025;48.890;9.278;2023-08-21T02:47:28;6.73;;;6.33;;
9968;SDS011;5025;48.890;9.278;2023-08-21T02:49:53;6.67;;;6.20;;
9968;SDS011;5025;48.890;9.278;2023-08-21T02:52:19;6.97;;;6.57;;
9968;SDS011;5025;48.890;9.278;2023-08-21T02:54:44;6.63;;;6.23;;
9968;SDS011;5025;48.890;9.278;2023-08-21T02:57:09;6.73;;;6.23;;
9968;SDS011;5025;48.890;9.278;2023-08-21T02:59:34;7.13;;;6.60;;
9968;SDS011;5025;48.890;9.278;2023-08-21T03:02:00;6.53;;;6.03;;
9968;SDS011;5025;48.890;9.278;2023-08-21T03:04:25;6.60;;;6.20;;
9968;SDS011;5025;48.890;9.278;2023-08-21T03:06:50;6.77;;;6.37;;
9968;SDS011;5025;48.890;9.278;2023-08-21T03:09:15;6.30;;;5.90;;
9968;SDS011;5025;48.890;9.278;2023-08-21T03:11:40;6.60;;;6.20;;
9968;SDS011;5025;48.890;9.278;2023-08-21T03:14:06;7.40;;;6.80;;
9968;SDS011;5025;48.890;9.278;2023-08-21T03:16:31;6.50;;;6.10;;
9968;SDS011;5025;48.890;9.278;2023-08-21T03:18:57;7.17;;;6.57;;
9968;SDS011;5025;48.890;9.278;2023-08-21T03:21:24;6.80;;;6.30;;
9968;SDS011;5025;48.890;9.278;2023-08-21T03:23:55;6.73;;;6.30;;
9968;SDS011;5025;48.890;9.278;2023-08-21T03:26:22;6.63;;;6.13;;
9968;SDS011;5025;48.890;9.278;2023-08-21T03:28:48;6.90;;;6.40;;
9968;SDS011;5025;48.890;9.278;2023-08-21T03:31:14;6.90;;;6.50;;
9968;SDS011;5025;48.890;9.278;2023-08-21T03:33:39;6.90;;;6.30;;
9968;SDS011;5025;48.890;9.278;2023-08-21T03:36:04;6.57;;;5.97;;
9968;SDS011;5025;48.890;9.278;2023-08-21T03:38:30;6.97;;;6.40;;
9968;SDS011;5025;48.890;9.278;2023-08-21T03:40:55;6.93;;;6.43;;
9968;SDS011;5025;48.890;9.278;2023-08-21T03:43:20;7.50;;;7.00;;
9968;SDS011;5025;48.890;9.278;2023-08-21T03:45:46;7.00;;;6.50;;
9968;SDS011;5025;48.890;9.278;2023-08-21T03:48:11;6.90;;;6.50;;
9968;SDS011;5025;48.890;9.278;2023-08-21T03:50:38;6.63;;;6.23;;
9968;SDS011;5025;48.890;9.278;2023-08-21T03:53:03;7.27;;;6.67;;
9968;SDS011;5025;48.890;9.278;2023-08-21T03:55:28;6.90;;;6.40;;
9968;SDS011;5025;48.890;9.278;2023-08-21T03:57:54;6.73;;;6.33;;
9968;SDS011;5025;48.890;9.278;2023-08-21T04:00:19;6.47;;;6.07;;
9968;SDS011;5025;48.890;9.278;2023-08-21T04:02:44;6.60;;;6.10;;
9968;SDS011;5025;48.890;9.278;2023-08-21T04:05:09;7.30;;;6.70;;
9968;SDS011;5025;48.890;9.278;2023-08-21T04:07:36;6.67;;;6.27;;
9968;SDS011;5025;48.890;9.278;2023-08-21T04:10:02;6.77;;;6.37;;
9968;SDS011;5025;48.890;9.278;2023-08-21T04:12:27;6.80;;;6.30;;
9968;SDS011;5025;48.890;9.278;2023-08-21T04:14:52;6.90;;;6.40;;
9968;SDS011;5025;48.890;9.278;2023-08-21T04:17:21;7.23;;;6.63;;
9968;SDS011;5025;48.890;9.278;2023-08-21T04:19:47;7.40;;;6.80;;
9968;SDS011;5025;48.890;9.278;2023-08-21T04:22:12;8.20;;;7.50;;
9968;SDS011;5025;48.890;9.278;2023-08-21T04:24:38;7.83;;;7.27;;
9968;SDS011;5025;48.890;9.278;2023-08-21T04:27:04;7.20;;;6.70;;
9968;SDS011;5025;48.890;9.278;2023-08-21T04:29:29;7.03;;;6.53;;
9968;SDS011;5025;48.890;9.278;2023-08-21T04:31:54;7.03;;;6.43;;
9968;SDS011;5025;48.890;9.278;2023-08-21T04:34:20;7.30;;;6.70;;
9968;SDS011;5025;48.890;9.278;2023-08-21T04:36:45;7.20;;;6.60;;
9968;SDS011;5025;48.890;9.278;2023-08-21T04:39:10;7.17;;;6.67;;
9968;SDS011;5025;48.890;9.278;2023-08-21T04:41:35;7.40;;;6.90;;
9968;SDS011;5025;48.890;9.278;2023-08-21T04:44:01;7.20;;;6.63;;
9968;SDS011;5025;48.890;9.278;2023-08-21T04:46:27;7.03;;;6.53;;
9968;SDS011;5025;48.890;9.278;2023-08-21T04:48:53;7.27;;;6.63;;
9968;SDS011;5025;48.890;9.278;2023-08-21T04:51:18;7.17;;;6.50;;
9968;SDS011;5025;48.890;9.278;2023-08-21T04:53:45;6.93;;;6.43;;
9968;SDS011;5025;48.890;9.278;2023-08-21T04:56:10;6.97;;;6.47;;
9968;SDS011;5025;48.890;9.278;2023-08-21T04:58:35;6.73;;;6.23;;
9968;SDS011;5025;48.890;9.278;2023-08-21T05:01:01;8.33;;;7.10;;
9968;SDS011;5025;48.890;9.278;2023-08-21T05:03:26;8.33;;;6.80;;
9968;SDS011;5025;48.890;9.278;2023-08-21T05:05:52;7.63;;;6.83;;
9968;SDS011;5025;48.890;9.278;2023-08-21T05:08:19;6.97;;;6.37;;
9968;SDS011;5025;48.890;9.278;2023-08-21T05:10:45;7.67;;;6.73;;
9968;SDS011;5025;48.890;9.278;2023-08-21T05:13:10;10.80;;;7.57;;
9968;SDS011;5025;48.890;9.278;2023-08-21T05:15:36;7.90;;;7.20;;
9968;SDS011;5025;48.890;9.278;2023-08-21T05:18:01;7.47;;;6.87;;
9968;SDS011;5025;48.890;9.278;2023-08-21T05:20:26;7.87;;;7.23;;
9968;SDS011;5025;48.890;9.278;2023-08-21T05:22:51;8.37;;;7.57;;
9968;SDS011;5025;48.890;9.278;2023-08-21T05:25:17;7.40;;;6.87;;
9968;SDS011;5025;48.890;9.278;2023-08-21T05:27:42;7.80;;;7.17;;
9968;SDS011;5025;48.890;9.278;2023-08-21T05:30:07;7.30;;;6.70;;
9968;SDS011;5025;48.890;9.278;2023-08-21T05:32:35;7.50;;;6.97;;
9968;SDS011;5025;48.890;9.278;2023-08-21T05:35:00;7.13;;;6.60;;
9968;SDS011;5025;48.890;9.278;2023-08-21T05:37:25;7.00;;;6.57;;
9968;SDS011;5025;48.890;9.278;2023-08-21T05:39:51;7.43;;;6.70;;
9968;SDS011;5025;48.890;9.278;2023-08-21T05:42:17;7.30;;;6.70;;
9968;SDS011;5025;48.890;9.278;2023-08-21T05:44:42;6.77;;;6.37;;
9968;SDS011;5025;48.890;9.278;2023-08-21T05:47:07;7.67;;;7.10;;
9968;SDS011;5025;48.890;9.278;2023-08-21T05:49:33;7.57;;;7.07;;
9968;SDS011;5025;48.890;9.278;2023-08-21T05:51:58;7.10;;;6.60;;
9968;SDS011;5025;48.890;9.278;2023-08-21T05:54:24;7.50;;;6.90;;
9968;SDS011;5025;48.890;9.278;2023-08-21T05:56:50;7.30;;;6.80;;
9968;SDS011;5025;48.890;9.278;2023-08-21T05:59:25;7.70;;;7.20;;
9968;SDS011;5025;48.890;9.278;2023-08-21T06:01:52;7.73;;;7.13;;
9968;SDS011;5025;48.890;9.278;2023-08-21T06:04:18;7.17;;;6.60;;
9968;SDS011;5025;48.890;9.278;2023-08-21T06:06:43;7.27;;;6.83;;
9968;SDS011;5025;48.890;9.278;2023-08-21T06:09:08;7.47;;;6.90;;
9968;SDS011;5025;48.890;9.278;2023-08-21T06:11:33;7.93;;;7.33;;
9968;SDS011;5025;48.890;9.278;2023-08-21T06:13:59;7.40;;;6.90;;
9968;SDS011;5025;48.890;9.278;2023-08-21T06:16:24;7.60;;;7.00;;
9968;SDS011;5025;48.890;9.278;2023-08-21T06:18:49;7.90;;;7.30;;
9968;SDS011;5025;48.890;9.278;2023-08-21T06:21:14;8.10;;;7.53;;
9968;SDS011;5025;48.890;9.278;2023-08-21T06:23:40;8.87;;;8.20;;
9968;SDS011;5025;48.890;9.278;2023-08-21T06:26:05;8.93;;;8.33;;
9968;SDS011;5025;48.890;9.278;2023-08-21T06:28:30;10.13;;;9.23;;
9968;SDS011;5025;48.890;9.278;2023-08-21T06:30:56;9.17;;;8.40;;
9968;SDS011;5025;48.890;9.278;2023-08-21T06:33:22;8.63;;;7.93;;
9968;SDS011;5025;48.890;9.278;2023-08-21T06:35:48;8.90;;;8.23;;
9968;SDS011;5025;48.890;9.278;2023-08-21T06:38:13;8.40;;;7.80;;
9968;SDS011;5025;48.890;9.278;2023-08-21T06:40:38;7.53;;;7.03;;
9968;SDS011;5025;48.890;9.278;2023-08-21T06:43:03;7.70;;;7.20;;
9968;SDS011;5025;48.890;9.278;2023-08-21T06:45:30;8.73;;;8.00;;
9968;SDS011;5025;48.890;9.278;2023-08-21T06:47:57;8.03;;;7.53;;
9968;SDS011;5025;48.890;9.278;2023-08-21T06:50:22;7.70;;;7.17;;
9968;SDS011;5025;48.890;9.278;2023-08-21T06:52:48;8.00;;;7.40;;
9968;SDS011;5025;48.890;9.278;2023-08-21T06:55:13;7.70;;;7.10;;
9968;SDS011;5025;48.890;9.278;2023-08-21T06:57:38;8.77;;;8.07;;
9968;SDS011;5025;48.890;9.278;2023-08-21T07:00:04;8.63;;;7.93;;
9968;SDS011;5025;48.890;9.278;2023-08-21T07:02:30;8.57;;;7.87;;
9968;SDS011;5025;48.890;9.278;2023-08-21T07:04:56;9.30;;;8.50;;
9968;SDS011;5025;48.890;9.278;2023-08-21T07:07:21;9.07;;;8.27;;
9968;SDS011;5025;48.890;9.278;2023-08-21T07:09:46;8.40;;;7.80;;
9968;SDS011;5025;48.890;9.278;2023-08-21T07:12:11;7.53;;;7.03;;
9968;SDS011;5025;48.890;9.278;2023-08-21T07:14:37;7.60;;;7.10;;
9968;SDS011;5025;48.890;9.278;2023-08-21T07:17:02;7.97;;;7.27;;
9968;SDS011;5025;48.890;9.278;2023-08-21T07:19:27;7.57;;;7.00;;
9968;SDS011;5025;48.890;9.278;2023-08-21T07:21:53;7.73;;;7.20;;
9968;SDS011;5025;48.890;9.278;2023-08-21T07:24:18;7.70;;;7.10;;
9968;SDS011;5025;48.890;9.278;2023-08-21T07:26:43;8.17;;;7.57;;
9968;SDS011;5025;48.890;9.278;2023-08-21T07:29:08;7.37;;;6.87;;
9968;SDS011;5025;48.890;9.278;2023-08-21T07:31:34;6.73;;;6.27;;
9968;SDS011;5025;48.890;9.278;2023-08-21T07:33:59;6.43;;;6.03;;
9968;SDS011;5025;48.890;9.278;2023-08-21T07:36:24;7.80;;;7.20;;
9968;SDS011;5025;48.890;9.278;2023-08-21T07:38:49;8.87;;;8.07;;
9968;SDS011;5025;48.890;9.278;2023-08-21T07:41:15;8.57;;;7.77;;
9968;SDS011;5025;48.890;9.278;2023-08-21T07:43:41;9.33;;;8.57;;
9968;SDS011;5025;48.890;9.278;2023-08-21T07:46:10;9.13;;;8.33;;
9968;SDS011;5025;48.890;9.278;2023-08-21T07:48:43;9.23;;;8.30;;
9968;SDS011;5025;48.890;9.278;2023-08-21T07:51:09;8.00;;;7.30;;
9968;SDS011;5025;48.890;9.278;2023-08-21T07:53:34;8.07;;;7.53;;
9968;SDS011;5025;48.890;9.278;2023-08-21T07:56:00;7.23;;;6.70;;
9968;SDS011;5025;48.890;9.278;2023-08-21T07:58:26;6.90;;;6.50;;
9968;SDS011;5025;48.890;9.278;2023-08-21T08:00:51;6.53;;;6.07;;
9968;SDS011;5025;48.890;9.278;2023-08-21T08:03:16;6.47;;;6.07;;
9968;SDS011;5025;48.890;9.278;2023-08-21T08:05:42;6.63;;;6.13;;
9968;SDS011;5025;48.890;9.278;2023-08-21T08:08:07;6.40;;;6.00;;
9968;SDS011;5025;48.890;9.278;2023-08-21T08:10:33;6.20;;;5.80;;
9968;SDS011;5025;48.890;9.278;2023-08-21T08:13:02;6.20;;;5.80;;
9968;SDS011;5025;48.890;9.278;2023-08-21T08:15:27;6.27;;;5.77;;
9968;SDS011;5025;48.890;9.278;2023-08-21T08:17:54;5.90;;;5.50;;
9968;SDS011;5025;48.890;9.278;2023-08-21T08:20:20;5.87;;;5.57;;
9968;SDS011;5025;48.890;9.278;2023-08-21T08:22:45;7.03;;;6.37;;
9968;SDS011;5025;48.890;9.278;2023-08-21T08:25:11;6.43;;;6.00;;
9968;SDS011;5025;48.890;9.278;2023-08-21T08:27:36;6.10;;;5.70;;
9968;SDS011;5025;48.890;9.278;2023-08-21T08:30:02;6.83;;;6.23;;
9968;SDS011;5025;48.890;9.278;2023-08-21T08:32:28;6.53;;;6.10;;
9968;SDS011;5025;48.890;9.278;2023-08-21T08:34:54;6.33;;;5.83;;
9968;SDS011;5025;48.890;9.278;2023-08-21T08:37:19;5.83;;;5.53;;
9968;SDS011;5025;48.890;9.278;2023-08-21T08:39:47;5.90;;;5.50;;
9968;SDS011;5025;48.890;9.278;2023-08-21T08:42:16;5.60;;;5.20;;
9968;SDS011;5025;48.890;9.278;2023-08-21T08:44:42;5.77;;;5.47;;
9968;SDS011;5025;48.890;9.278;2023-08-21T08:47:08;6.07;;;5.63;;
9968;SDS011;5025;48.890;9.278;2023-08-21T08:49:35;5.80;;;5.40;;
9968;SDS011;5025;48.890;9.278;2023-08-21T08:52:00;5.80;;;5.30;;
9968;SDS011;5025;48.890;9.278;2023-08-21T08:54:26;5.40;;;5.10;;
9968;SDS011;5025;48.890;9.278;2023-08-21T08:56:52;7.60;;;7.00;;
9968;SDS011;5025;48.890;9.278;2023-08-21T08:59:18;7.80;;;7.20;;
9968;SDS011;5025;48.890;9.278;2023-08-21T09:01:44;7.70;;;7.10;;
9968;SDS011;5025;48.890;9.278;2023-08-21T09:04:10;7.30;;;6.80;;
9968;SDS011;5025;48.890;9.278;2023-08-21T09:06:35;6.90;;;6.40;;
9968;SDS011;5025;48.890;9.278;2023-08-21T09:09:01;6.73;;;6.27;;
9968;SDS011;5025;48.890;9.278;2023-08-21T09:11:26;6.63;;;6.27;;
9968;SDS011;5025;48.890;9.278;2023-08-21T09:13:52;7.23;;;6.73;;
9968;SDS011;5025;48.890;9.278;2023-08-21T09:16:19;6.90;;;6.40;;
9968;SDS011;5025;48.890;9.278;2023-08-21T09:18:48;6.80;;;6.30;;
9968;SDS011;5025;48.890;9.278;2023-08-21T09:21:18;7.87;;;7.07;;
9968;SDS011;5025;48.890;9.278;2023-08-21T09:23:44;7.27;;;6.77;;
9968;SDS011;5025;48.890;9.278;2023-08-21T09:26:10;7.50;;;6.90;;
9968;SDS011;5025;48.890;9.278;2023-08-21T09:28:36;7.90;;;7.30;;
9968;SDS011;5025;48.890;9.278;2023-08-21T09:31:02;7.40;;;6.90;;
9968;SDS011;5025;48.890;9.278;2023-08-21T09:33:28;7.27;;;6.67;;
9968;SDS011;5025;48.890;9.278;2023-08-21T09:35:53;7.20;;;6.70;;
9968;SDS011;5025;48.890;9.278;2023-08-21T09:38:20;7.30;;;6.70;;
9968;SDS011;5025;48.890;9.278;2023-08-21T09:40:55;7.27;;;6.67;;
9968;SDS011;5025;48.890;9.278;2023-08-21T09:43:21;6.80;;;6.30;;
9968;SDS011;5025;48.890;9.278;2023-08-21T09:45:48;6.30;;;5.90;;
9968;SDS011;5025;48.890;9.278;2023-08-21T09:48:23;6.67;;;6.17;;
9968;SDS011;5025;48.890;9.278;2023-08-21T09:50:50;6.73;;;6.33;;
9968;SDS011;5025;48.890;9.278;2023-08-21T09:53:16;5.93;;;5.63;;
9968;SDS011;5025;48.890;9.278;2023-08-21T09:55:42;5.90;;;5.60;;
9968;SDS011;5025;48.890;9.278;2023-08-21T09:58:07;5.40;;;5.10;;
9968;SDS011;5025;48.890;9.278;2023-08-21T10:00:34;6.07;;;5.67;;
9968;SDS011;5025;48.890;9.278;2023-08-21T10:03:02;6.00;;;5.47;;
9968;SDS011;5025;48.890;9.278;2023-08-21T10:05:37;5.77;;;5.37;;
9968;SDS011;5025;48.890;9.278;2023-08-21T10:08:05;5.57;;;5.27;;
9968;SDS011;5025;48.890;9.278;2023-08-21T10:10:33;5.30;;;4.90;;
9968;SDS011;5025;48.890;9.278;2023-08-21T10:13:01;5.43;;;5.10;;
9968;SDS011;5025;48.890;9.278;2023-08-21T10:15:28;6.97;;;6.30;;
9968;SDS011;5025;48.890;9.278;2023-08-21T10:17:54;6.60;;;6.13;;
9968;SDS011;5025;48.890;9.278;2023-08-21T10:20:20;6.70;;;6.10;;
9968;SDS011;5025;48.890;9.278;2023-08-21T10:22:48;5.87;;;5.47;;
9968;SDS011;5025;48.890;9.278;2023-08-21T10:25:24;6.67;;;6.03;;
9968;SDS011;5025;48.890;9.278;2023-08-21T10:27:53;6.00;;;5.60;;
9968;SDS011;5025;48.890;9.278;2023-08-21T10:30:24;5.70;;;5.30;;
9968;SDS011;5025;48.890;9.278;2023-08-21T10:32:52;5.40;;;5.03;;
9968;SDS011;5025;48.890;9.278;2023-08-21T10:35:19;5.20;;;4.90;;
9968;SDS011;5025;48.890;9.278;2023-08-21T10:41:03;4.90;;;4.60;;
9968;SDS011;5025;48.890;9.278;2023-08-21T10:43:40;4.93;;;4.63;;
9968;SDS011;5025;48.890;9.278;2023-08-21T10:46:09;4.90;;;4.60;;
9968;SDS011;5025;48.890;9.278;2023-08-21T10:48:39;4.70;;;4.40;;
9968;SDS011;5025;48.890;9.278;2023-08-21T10:51:05;4.53;;;4.33;;
9968;SDS011;5025;48.890;9.278;2023-08-21T10:53:32;4.40;;;4.10;;
9968;SDS011;5025;48.890;9.278;2023-08-21T10:56:04;4.30;;;4.10;;
9968;SDS011;5025;48.890;9.278;2023-08-21T10:58:43;4.80;;;4.50;;
9968;SDS011;5025;48.890;9.278;2023-08-21T11:01:12;4.57;;;4.27;;
9968;SDS011;5025;48.890;9.278;2023-08-21T11:03:38;4.60;;;4.30;;
9968;SDS011;5025;48.890;9.278;2023-08-21T11:06:05;4.10;;;3.90;;
9968;SDS011;5025;48.890;9.278;2023-08-21T11:08:33;4.80;;;4.50;;
9968;SDS011;5025;48.890;9.278;2023-08-21T11:11:01;4.50;;;4.20;;
9968;SDS011;5025;48.890;9.278;2023-08-21T11:13:27;4.20;;;4.00;;
9968;SDS011;5025;48.890;9.278;2023-08-21T11:18:35;4.53;;;4.23;;
9968;SDS011;5025;48.890;9.278;2023-08-21T11:21:09;4.23;;;4.03;;
9968;SDS011;5025;48.890;9.278;2023-08-21T11:23:36;4.67;;;4.37;;
9968;SDS011;5025;48.890;9.278;2023-08-21T11:26:05;4.30;;;4.10;;
9968;SDS011;5025;48.890;9.278;2023-08-21T11:28:35;4.20;;;3.93;;
9968;SDS011;5025;48.890;9.278;2023-08-21T11:31:00;6.23;;;5.30;;
9968;SDS011;5025;48.890;9.278;2023-08-21T11:33:26;5.70;;;5.20;;
9968;SDS011;5025;48.890;9.278;2023-08-21T11:35:53;5.03;;;4.67;;
9968;SDS011;5025;48.890;9.278;2023-08-21T11:38:19;5.17;;;4.70;;
9968;SDS011;5025;48.890;9.278;2023-08-21T11:40:56;5.80;;;5.30;;
9968;SDS011;5025;48.890;9.278;2023-08-21T11:43:33;4.83;;;4.53;;
9968;SDS011;5025;48.890;9.278;2023-08-21T11:46:00;5.00;;;4.60;;
9968;SDS011;5025;48.890;9.278;2023-08-21T11:48:29;5.20;;;4.70;;
9968;SDS011;5025;48.890;9.278;2023-08-21T11:50:55;4.73;;;4.40;;
9968;SDS011;5025;48.890;9.278;2023-08-21T11:53:39;5.23;;;4.80;;
9968;SDS011;5025;48.890;9.278;2023-08-21T11:56:09;4.55;;;4.20;;
9968;SDS011;5025;48.890;9.278;2023-08-21T11:58:39;4.57;;;4.38;;
9968;SDS011;5025;48.890;9.278;2023-08-21T12:01:05;4.60;;;4.30;;
9968;SDS011;5025;48.890;9.278;2023-08-21T12:03:35;5.88;;;5.32;;
9968;SDS011;5025;48.890;9.278;2023-08-21T12:06:07;6.40;;;5.90;;
9968;SDS011;5025;48.890;9.278;2023-08-21T12:08:33;6.97;;;5.40;;
9968;SDS011;5025;48.890;9.278;2023-08-21T12:10:58;5.43;;;5.07;;
9968;SDS011;5025;48.890;9.278;2023-08-21T12:13:24;5.38;;;4.93;;
9968;SDS011;5025;48.890;9.278;2023-08-21T12:15:49;4.78;;;4.45;;
9968;SDS011;5025;48.890;9.278;2023-08-21T12:18:14;6.40;;;5.90;;
9968;SDS011;5025;48.890;9.278;2023-08-21T12:20:39;5.80;;;5.35;;
9968;SDS011;5025;48.890;9.278;2023-08-21T12:23:05;6.15;;;5.55;;
9968;SDS011;5025;48.890;9.278;2023-08-21T12:25:30;6.22;;;5.63;;
9968;SDS011;5025;48.890;9.278;2023-08-21T12:27:56;7.88;;;5.75;;
9968;SDS011;5025;48.890;9.278;2023-08-21T12:30:22;6.18;;;5.65;;
9968;SDS011;5025;48.890;9.278;2023-08-21T12:32:47;5.70;;;5.22;;
9968;SDS011;5025;48.890;9.278;2023-08-21T12:35:12;5.35;;;4.95;;
9968;SDS011;5025;48.890;9.278;2023-08-21T12:37:38;5.32;;;4.93;;
9968;SDS011;5025;48.890;9.278;2023-08-21T12:40:03;5.57;;;5.18;;
9968;SDS011;5025;48.890;9.278;2023-08-21T12:42:29;4.82;;;4.53;;
9968;SDS011;5025;48.890;9.278;2023-08-21T12:44:54;4.97;;;4.68;;
9968;SDS011;5025;48.890;9.278;2023-08-21T12:47:19;4.57;;;4.28;;
9968;SDS011;5025;48.890;9.278;2023-08-21T12:49:45;4.80;;;4.50;;
9968;SDS011;5025;48.890;9.278;2023-08-21T12:52:10;4.28;;;4.07;;
9968;SDS011;5025;48.890;9.278;2023-08-21T12:54:37;4.20;;;4.00;;
9968;SDS011;5025;48.890;9.278;2023-08-21T12:57:03;4.20;;;4.00;;
9968;SDS011;5025;48.890;9.278;2023-08-21T12:59:28;5.53;;;5.10;;
9968;SDS011;5025;48.890;9.278;2023-08-21T13:01:53;6.13;;;5.35;;
9968;SDS011;5025;48.890;9.278;2023-08-21T13:04:19;6.38;;;5.47;;
9968;SDS011;5025;48.890;9.278;2023-08-21T13:06:44;5.70;;;5.28;;
9968;SDS011;5025;48.890;9.278;2023-08-21T13:09:09;4.90;;;4.60;;
9968;SDS011;5025;48.890;9.278;2023-08-21T13:11:34;5.32;;;4.75;;
9968;SDS011;5025;48.890;9.278;2023-08-21T13:14:00;4.95;;;4.55;;
9968;SDS011;5025;48.890;9.278;2023-08-21T13:16:25;4.85;;;4.45;;
9968;SDS011;5025;48.890;9.278;2023-08-21T13:18:50;4.47;;;4.18;;
9968;SDS011;5025;48.890;9.278;2023-08-21T13:21:16;4.22;;;4.03;;
9968;SDS011;5025;48.890;9.278;2023-08-21T13:23:42;4.38;;;4.07;;
9968;SDS011;5025;48.890;9.278;2023-08-21T13:26:07;5.10;;;4.47;;
9968;SDS011;5025;48.890;9.278;2023-08-21T13:28:32;4.30;;;4.00;;
9968;SDS011;5025;48.890;9.278;2023-08-21T13:30:59;4.15;;;3.95;;
9968;SDS011;5025;48.890;9.278;2023-08-21T13:33:24;3.90;;;3.70;;
9968;SDS011;5025;48.890;9.278;2023-08-21T13:35:50;3.83;;;3.63;;
9968;SDS011;5025;48.890;9.278;2023-08-21T13:38:15;4.10;;;3.80;;
9968;SDS011;5025;48.890;9.278;2023-08-21T13:40:40;4.00;;;3.70;;
9968;SDS011;5025;48.890;9.278;2023-08-21T13:43:06;4.07;;;3.78;;
9968;SDS011;5025;48.890;9.278;2023-08-21T13:45:32;4.00;;;3.70;;
9968;SDS011;5025;48.890;9.278;2023-08-21T13:47:58;4.00;;;3.70;;
9968;SDS011;5025;48.890;9.278;2023-08-21T13:50:23;3.50;;;3.30;;
9968;SDS011;5025;48.890;9.278;2023-08-21T13:52:48;3.47;;;3.28;;
9968;SDS011;5025;48.890;9.278;2023-08-21T13:55:14;3.80;;;3.60;;
9968;SDS011;5025;48.890;9.278;2023-08-21T13:57:40;3.80;;;3.60;;
9968;SDS011;5025;48.890;9.278;2023-08-21T14:00:06;3.70;;;3.50;;
9968;SDS011;5025;48.890;9.278;2023-08-21T14:02:36;4.25;;;3.85;;
9968;SDS011;5025;48.890;9.278;2023-08-21T14:05:01;3.58;;;3.38;;
9968;SDS011;5025;48.890;9.278;2023-08-21T14:07:29;4.03;;;3.30;;
9968;SDS011;5025;48.890;9.278;2023-08-21T14:09:55;3.95;;;3.75;;
9968;SDS011;5025;48.890;9.278;2023-08-21T14:12:20;4.22;;;3.90;;
9968;SDS011;5025;48.890;9.278;2023-08-21T14:14:45;4.00;;;3.80;;
9968;SDS011;5025;48.890;9.278;2023-08-21T14:17:10;3.65;;;3.50;;
9968;SDS011;5025;48.890;9.278;2023-08-21T14:19:36;4.90;;;4.50;;
9968;SDS011;5025;48.890;9.278;2023-08-21T14:22:01;4.85;;;4.40;;
9968;SDS011;5025;48.890;9.278;2023-08-21T14:24:28;4.68;;;4.40;;
9968;SDS011;5025;48.890;9.278;2023-08-21T14:26:53;4.32;;;4.10;;
9968;SDS011;5025;48.890;9.278;2023-08-21T14:29:18;4.30;;;4.00;;
9968;SDS011;5025;48.890;9.278;2023-08-21T14:31:44;4.50;;;4.20;;
9968;SDS011;5025;48.890;9.278;2023-08-21T14:34:11;3.97;;;3.78;;
9968;SDS011;5025;48.890;9.278;2023-08-21T14:36:37;4.50;;;4.10;;
9968;SDS011;5025;48.890;9.278;2023-08-21T14:39:02;5.25;;;4.70;;
9968;SDS011;5025;48.890;9.278;2023-08-21T14:41:28;5.00;;;4.50;;
9968;SDS011;5025;48.890;9.278;2023-08-21T14:43:53;4.45;;;4.15;;
9968;SDS011;5025;48.890;9.278;2023-08-21T14:46:19;4.38;;;4.00;;
9968;SDS011;5025;48.890;9.278;2023-08-21T14:48:44;4.00;;;3.80;;
9968;SDS011;5025;48.890;9.278;2023-08-21T14:51:09;4.00;;;3.70;;
9968;SDS011;5025;48.890;9.278;2023-08-21T14:53:34;3.55;;;3.35;;
9968;SDS011;5025;48.890;9.278;2023-08-21T14:56:00;3.80;;;3.50;;
9968;SDS011;5025;48.890;9.278;2023-08-21T14:58:25;3.90;;;3.60;;
9968;SDS011;5025;48.890;9.278;2023-08-21T15:00:53;3.80;;;3.50;;
9968;SDS011;5025;48.890;9.278;2023-08-21T15:03:19;3.53;;;3.22;;
9968;SDS011;5025;48.890;9.278;2023-08-21T15:05:44;3.80;;;3.50;;
9968;SDS011;5025;48.890;9.278;2023-08-21T15:08:10;3.72;;;3.53;;
9968;SDS011;5025;48.890;9.278;2023-08-21T15:10:35;3.70;;;3.50;;
9968;SDS011;5025;48.890;9.278;2023-08-21T15:13:00;3.40;;;3.20;;
9968;SDS011;5025;48.890;9.278;2023-08-21T15:15:26;3.45;;;3.25;;
9968;SDS011;5025;48.890;9.278;2023-08-21T15:17:51;3.63;;;3.42;;
9968;SDS011;5025;48.890;9.278;2023-08-21T15:20:16;4.25;;;3.95;;